Time;durP1;ratioP1;P1;durP2;ratioP2;P2;SDS_P1;SDS_P2;PMS_P1;PMS_P2;Temp;Humidity;BMP_temperature;BMP_pressure;BME280_temperature;BME280_humidity;BME280_pressure;Samples;Min_cycle;Max_cycle;Signal;HPM_P1;HPM_P2
2022/07/30 00:01:10;;;;;;;9.05;4.97;;;16.00;99.90;;;;;;5020431;28;20131;-64
2022/07/30 00:03:36;;;;;;;9.18;4.93;;;15.90;99.90;;;;;;5053500;28;20497;-64
2022/07/30 00:06:02;;;;;;;7.85;5.45;;;;;;;;;;5054052;28;20080;-64
2022/07/30 00:08:28;;;;;;;10.32;5.60;;;;;;;;;;5053921;28;20541;-64
2022/07/30 00:10:54;;;;;;;11.40;4.57;;;;;;;;;;5053251;28;20041;-64
2022/07/30 00:13:20;;;;;;;7.03;4.82;;;;;;;;;;5054117;28;20082;-64
2022/07/30 00:15:46;;;;;;;10.00;5.55;;;;;;;;;;5053614;28;20041;-64
2022/07/30 00:18:12;;;;;;;9.18;6.03;;;;;;;;;;5035363;28;20045;-64
2022/07/30 00:20:39;;;;;;;10.88;5.15;;;;;;;;;;5019250;28;20143;-64
2022/07/30 00:23:05;;;;;;;9.85;4.70;;;;;;;;;;5036199;28;20071;-65
2022/07/30 00:25:31;;;;;;;10.45;5.30;;;;;;;;;;5018657;28;20545;-64
2022/07/30 00:27:57;;;;;;;8.10;5.43;;;;;;;;;;5053558;28;20040;-65
2022/07/30 00:30:23;;;;;;;7.35;4.95;;;16.10;99.90;;;;;;5053407;28;20033;-64
2022/07/30 00:32:52;;;;;;;7.82;4.80;;;;;;;;;;5052658;28;20037;-64
2022/07/30 00:35:18;;;;;;;10.57;5.68;;;15.60;99.90;;;;;;5035859;28;20127;-64
2022/07/30 00:37:43;;;;;;;7.30;4.93;;;16.30;99.90;;;;;;5034859;28;20128;-64
2022/07/30 00:40:10;;;;;;;10.73;6.30;;;;;;;;;;5053564;28;20037;-64
2022/07/30 00:42:37;;;;;;;10.18;5.90;;;;;;;;;;5035480;28;20037;-64
2022/07/30 00:45:04;;;;;;;9.00;5.93;;;15.40;99.90;;;;;;5034799;28;20123;-64
2022/07/30 00:47:29;;;;;;;9.38;5.57;;;15.50;99.90;;;;;;5035435;28;20045;-64
2022/07/30 00:49:55;;;;;;;7.25;5.35;;;15.40;99.90;;;;;;5053554;28;20428;-64
2022/07/30 00:52:20;;;;;;;9.32;4.78;;;15.40;99.90;;;;;;5034838;28;20041;-64
2022/07/30 00:54:46;;;;;;;9.13;5.20;;;16.00;99.90;;;;;;5053099;28;20037;-64
2022/07/30 00:57:12;;;;;;;9.10;5.55;;;15.70;99.90;;;;;;5035419;28;20393;-64
2022/07/30 00:59:38;;;;;;;9.52;5.75;;;15.50;99.90;;;;;;5051674;28;20049;-64
2022/07/30 01:02:03;;;;;;;10.07;5.38;;;15.40;99.90;;;;;;5034960;28;20409;-64
2022/07/30 01:04:29;;;;;;;7.10;5.00;;;15.40;99.90;;;;;;5053028;28;20083;-64
2022/07/30 01:06:55;;;;;;;9.65;4.95;;;15.30;99.90;;;;;;5034113;28;20049;-64
2022/07/30 01:09:21;;;;;;;7.68;4.43;;;;;;;;;;5053134;28;20040;-64
2022/07/30 01:11:47;;;;;;;7.45;4.57;;;;;;;;;;5034834;28;20501;-64
2022/07/30 01:14:13;;;;;;;6.15;4.30;;;;;;;;;;5052415;28;20041;-64
2022/07/30 01:16:41;;;;;;;8.63;5.07;;;;;;;;;;5052714;28;20052;-64
2022/07/30 01:22:00;;;;;;;9.38;5.72;;;;;;;;;;5034089;28;20097;-64
2022/07/30 01:24:38;;;;;;;8.68;5.50;;;;;;;;;;5035003;28;20045;-64
2022/07/30 01:27:05;;;;;;;9.98;5.20;;;;;;;;;;5051647;28;20375;-64
2022/07/30 01:29:31;;;;;;;10.60;6.35;;;;;;;;;;5052467;28;20440;-64
2022/07/30 01:31:58;;;;;;;8.63;5.00;;;;;;;;;;5052397;28;20047;-64
2022/07/30 01:34:27;;;;;;;7.30;6.00;;;;;;;;;;5033800;28;20052;-65
2022/07/30 01:36:53;;;;;;;8.73;5.53;;;;;;;;;;5052449;28;20098;-64
2022/07/30 01:39:21;;;;;;;7.88;5.53;;;;;;;;;;5034709;28;20481;-65
2022/07/30 01:41:49;;;;;;;10.15;5.78;;;14.90;99.90;;;;;;5051495;28;20071;-64
2022/07/30 01:44:16;;;;;;;8.70;5.78;;;;;;;;;;5034644;28;20132;-64
2022/07/30 01:46:43;;;;;;;10.02;5.63;;;;;;;;;;5034148;28;20056;-65
2022/07/30 01:49:10;;;;;;;10.35;6.03;;;14.80;99.90;;;;;;5051497;28;20090;-64
2022/07/30 01:51:37;;;;;;;7.78;5.68;;;14.90;99.90;;;;;;5052311;28;20041;-64
2022/07/30 01:54:08;;;;;;;9.07;6.75;;;14.60;99.90;;;;;;5034131;28;20052;-64
2022/07/30 01:56:36;;;;;;;9.95;6.75;;;14.20;99.90;;;;;;5033401;28;20547;-64
2022/07/30 01:59:03;;;;;;;8.27;6.47;;;15.00;99.90;;;;;;5051957;28;20048;-64
2022/07/30 02:01:29;;;;;;;9.77;5.82;;;14.10;99.90;;;;;;5034212;28;20057;-64
2022/07/30 02:03:57;;;;;;;10.70;5.90;;;14.60;99.90;;;;;;5050929;28;20049;-64
2022/07/30 02:06:29;;;;;;;7.78;5.95;;;15.00;99.90;;;;;;5051976;28;20382;-64
2022/07/30 02:09:00;;;;;;;9.50;6.32;;;14.00;99.90;;;;;;5017751;28;20084;-64
2022/07/30 02:14:23;;;;;;;9.77;6.20;;;15.60;99.90;;;;;;5052195;28;20056;-64
2022/07/30 02:16:52;;;;;;;12.00;7.40;;;14.40;99.90;;;;;;5050823;28;20083;-64
2022/07/30 02:19:19;;;;;;;10.45;6.13;;;;;;;;;;5034496;28;20482;-64
2022/07/30 02:21:55;;;;;;;11.13;5.85;;;14.70;99.90;;;;;;5033551;28;20087;-64
2022/07/30 02:24:26;;;;;;;8.43;5.95;;;14.40;99.90;;;;;;5051286;28;20033;-64
2022/07/30 02:26:55;;;;;;;7.15;5.40;;;;;;;;;;5033708;28;20048;-64
2022/07/30 02:29:22;;;;;;;9.00;6.03;;;;;;;;;;5034135;28;20045;-64
2022/07/30 02:31:49;;;;;;;10.05;6.50;;;;;;;;;;5051066;28;20120;-64
2022/07/30 02:34:16;;;;;;;11.32;6.70;;;;;;;;;;5052055;28;20048;-64
2022/07/30 02:36:42;;;;;;;9.65;6.40;;;;;;;;;;5033751;28;20130;-64
2022/07/30 02:39:09;;;;;;;8.85;6.25;;;;;;;;;;5050858;28;20120;-64
2022/07/30 02:41:37;;;;;;;9.63;5.95;;;14.40;99.90;;;;;;5051420;28;20510;-64
2022/07/30 02:44:03;;;;;;;8.05;6.30;;;;;;;;;;5051570;28;20076;-64
2022/07/30 02:46:31;;;;;;;10.02;6.93;;;;;;;;;;5050673;28;20474;-64
2022/07/30 02:48:57;;;;;;;10.68;7.88;;;;;;;;;;5051405;28;20037;-65
2022/07/30 02:51:25;;;;;;;10.73;8.05;;;;;;;;;;5032841;28;20048;-64
2022/07/30 02:53:52;;;;;;;10.57;7.53;;;;;;;;;;5051352;28;20037;-64
2022/07/30 02:56:20;;;;;;;15.55;9.80;;;;;;;;;;5051951;28;20059;-64
2022/07/30 02:58:47;;;;;;;10.75;8.02;;;;;;;;;;5032483;28;20083;-64
2022/07/30 03:01:14;;;;;;;16.13;10.10;;;;;;;;;;5034070;28;20497;-64
2022/07/30 03:03:42;;;;;;;13.70;8.98;;;;;;;;;;5051483;28;20080;-64
2022/07/30 03:06:08;;;;;;;14.93;10.02;;;;;;;;;;5050700;28;20052;-64
2022/07/30 03:08:35;;;;;;;11.38;8.38;;;;;;;;;;5017000;28;20037;-64
2022/07/30 03:11:02;;;;;;;13.98;9.65;;;;;;;;;;5033500;28;20504;-64
2022/07/30 03:13:28;;;;;;;13.70;8.82;;;;;;;;;;5032711;28;20045;-64
2022/07/30 03:15:56;;;;;;;11.77;7.82;;;;;;;;;;5033461;28;20049;-64
2022/07/30 03:18:23;;;;;;;11.00;7.78;;;;;;;;;;5051319;28;20128;-64
2022/07/30 03:20:50;;;;;;;13.80;9.45;;;;;;;;;;5032282;28;20070;-64
2022/07/30 03:23:18;;;;;;;14.52;9.05;;;;;;;;;;5036294;28;20063;-64
2022/07/30 03:25:50;;;;;;;11.60;8.93;;;;;;;;;;5054604;28;20080;-64
2022/07/30 03:28:17;;;;;;;11.50;8.80;;;;;;;;;;5054251;28;20041;-64
2022/07/30 03:30:43;;;;;;;12.68;8.13;;;;;;;;;;5036837;28;20486;-65
2022/07/30 03:33:10;;;;;;;13.25;8.85;;;;;;;;;;5054803;28;20044;-64
2022/07/30 03:35:37;;;;;;;12.25;8.55;;;;;;;;;;5035864;28;20060;-64
2022/07/30 03:38:03;;;;;;;13.15;9.45;;;;;;;;;;5054721;28;20060;-64
2022/07/30 03:40:29;;;;;;;10.63;8.07;;;;;;;;;;5054153;28;20037;-64
2022/07/30 03:42:56;;;;;;;10.38;8.00;;;;;;;;;;5054198;28;20049;-64
2022/07/30 03:45:22;;;;;;;14.90;10.35;;;;;;;;;;5036679;28;20037;-64
2022/07/30 03:47:48;;;;;;;13.32;9.38;;;;;;;;;;5053564;28;20482;-64
2022/07/30 03:50:15;;;;;;;13.55;9.50;;;;;;;;;;5036847;28;20037;-64
2022/07/30 03:52:41;;;;;;;13.10;8.68;;;;;;;;;;5036537;28;20545;-64
2022/07/30 03:55:08;;;;;;;12.18;10.13;;;;;;;;;;5053419;28;20091;-64
2022/07/30 03:57:34;;;;;;;13.50;9.45;;;;;;;;;;5036703;28;20123;-64
2022/07/30 04:00:00;;;;;;;12.60;10.32;;;;;;;;;;5036583;28;20041;-64
2022/07/30 04:02:27;;;;;;;13.93;9.60;;;;;;;;;;5035600;28;20120;-64
2022/07/30 04:04:53;;;;;;;11.40;9.45;;;;;;;;;;5053974;28;20099;-64
2022/07/30 04:07:19;;;;;;;13.05;9.85;;;;;;;;;;5036276;28;20052;-64
2022/07/30 04:09:45;;;;;;;12.30;10.27;;;;;;;;;;5052884;28;20120;-64
2022/07/30 04:12:12;;;;;;;11.27;9.00;;;;;;;;;;5054370;28;20032;-64
2022/07/30 04:14:43;;;;;;;16.20;10.63;;;;;;;;;;5053959;28;20040;-64
2022/07/30 04:17:15;;;;;;;12.25;9.63;;;;;;;;;;5053253;28;20041;-64
2022/07/30 04:19:44;;;;;;;11.68;9.20;;;;;;;;;;5036104;28;20545;-64
2022/07/30 04:22:11;;;;;;;11.90;9.60;;;;;;;;;;5053912;28;20048;-64
2022/07/30 04:24:38;;;;;;;12.65;9.65;;;;;;;;;;5035142;28;20049;-64
2022/07/30 04:27:04;;;;;;;12.88;10.05;;;;;;;;;;5035709;28;20068;-64
2022/07/30 04:29:30;;;;;;;12.15;9.55;;;;;;;;;;5053620;28;20394;-64
2022/07/30 04:31:56;;;;;;;11.63;8.85;;;;;;;;;;5052171;28;20040;-64
2022/07/30 04:34:22;;;;;;;12.55;9.75;;;;;;;;;;5055984;28;20047;-64
2022/07/30 04:36:48;;;;;;;10.90;9.25;;;;;;;;;;5054764;28;20133;-64
2022/07/30 04:39:14;;;;;;;12.55;9.63;;;;;;;;;;5044759;28;20040;-64
2022/07/30 04:41:40;;;;;;;12.70;10.18;;;;;;;;;;5035520;28;20052;-64
2022/07/30 04:44:06;;;;;;;14.27;12.15;;;;;;;;;;5052056;28;20143;-65
2022/07/30 04:46:32;;;;;;;13.27;8.95;;;;;;;;;;5052504;28;20045;-65
2022/07/30 04:48:58;;;;;;;12.07;8.32;;;;;;;;;;5053167;28;20041;-64
2022/07/30 04:51:34;;;;;;;14.95;10.93;;;;;;;;;;5052364;28;20032;-64
2022/07/30 04:54:02;;;;;;;13.40;10.15;;;;;;;;;;5053388;28;20040;-65
2022/07/30 04:56:30;;;;;;;15.68;11.35;;;;;;;;;;5053099;28;20045;-64
2022/07/30 04:58:56;;;;;;;13.95;11.70;;;;;;;;;;5052135;28;20041;-64
2022/07/30 05:01:24;;;;;;;14.45;12.48;;;;;;;;;;5053173;28;20532;-65
2022/07/30 05:03:51;;;;;;;13.85;11.43;;;;;;;;;;5052914;28;20043;-64
2022/07/30 05:06:18;;;;;;;13.93;12.10;;;;;;;;;;5034626;28;20048;-65
2022/07/30 05:08:45;;;;;;;16.98;11.55;;;;;;;;;;5034769;28;20079;-65
2022/07/30 05:11:12;;;;;;;14.40;10.70;;;;;;;;;;5052930;28;20095;-65
2022/07/30 05:13:40;;;;;;;11.88;10.60;;;;;;;;;;5052077;28;20076;-65
2022/07/30 05:16:07;;;;;;;13.65;11.55;;;;;;;;;;5052981;28;20045;-64
2022/07/30 05:18:33;;;;;;;13.13;10.57;;;;;;;;;;5052670;28;20060;-65
2022/07/30 05:20:59;;;;;;;16.38;11.00;;;;;;;;;;5051711;28;20053;-65
2022/07/30 05:23:25;;;;;;;14.73;10.23;;;;;;;;;;5052293;28;20045;-65
2022/07/30 05:25:51;;;;;;;19.45;10.35;;;;;;;;;;5034914;28;20125;-65
2022/07/30 05:28:17;;;;;;;16.58;10.30;;;;;;;;;;5051962;28;20041;-65
2022/07/30 05:30:43;;;;;;;14.60;10.15;;;;;;;;;;5051257;28;20033;-65
2022/07/30 05:33:09;;;;;;;17.67;10.32;;;16.10;99.90;;;;;;5051336;28;20174;-65
2022/07/30 05:35:34;;;;;;;13.88;10.57;;;15.60;99.90;;;;;;5034437;28;20116;-65
2022/07/30 05:38:01;;;;;;;16.60;11.02;;;;;;;;;;5034774;28;20505;-65
2022/07/30 05:40:26;;;;;;;13.27;8.93;;;15.60;99.90;;;;;;5051569;28;20077;-65
2022/07/30 05:42:52;;;;;;;18.33;9.38;;;16.30;99.90;;;;;;5052036;28;20122;-65
2022/07/30 05:45:18;;;;;;;12.90;9.65;;;;;;;;;;5052079;28;20029;-65
2022/07/30 05:47:44;;;;;;;13.23;8.77;;;;;;;;;;5051060;28;20504;-65
2022/07/30 05:50:11;;;;;;;15.52;10.13;;;16.70;99.90;;;;;;5034622;28;20043;-65
2022/07/30 05:52:37;;;;;;;15.48;9.20;;;16.30;99.90;;;;;;5050539;28;20045;-65
2022/07/30 05:55:03;;;;;;;14.77;8.65;;;16.70;99.90;;;;;;5030080;28;20049;-65
2022/07/30 05:57:28;;;;;;;12.65;8.13;;;16.80;99.90;;;;;;5037861;28;20798;-65
2022/07/30 05:59:54;;;;;;;12.27;7.65;;;17.00;99.90;;;;;;5049630;28;20124;-65
2022/07/30 06:02:20;;;;;;;15.48;8.80;;;17.10;99.90;;;;;;5049385;28;20478;-65
2022/07/30 06:04:46;;;;;;;13.07;8.30;;;;;;;;;;5048779;28;20047;-65
2022/07/30 06:07:12;;;;;;;13.13;8.23;;;;;;;;;;5049842;28;20051;-65
2022/07/30 06:09:37;;;;;;;11.70;7.53;;;17.20;99.90;;;;;;5031257;28;20052;-65
2022/07/30 06:12:04;;;;;;;11.85;7.68;;;17.60;99.90;;;;;;5030475;28;20456;-65
2022/07/30 06:14:30;;;;;;;13.00;7.32;;;;;;;;;;5049890;28;20037;-65
2022/07/30 06:16:57;;;;;;;12.40;6.93;;;;;;;;;;5044392;28;20059;-65
2022/07/30 06:19:23;;;;;;;12.48;7.22;;;;;;;;;;5054543;28;20486;-65
2022/07/30 06:21:49;;;;;;;14.63;6.20;;;;;;;;;;5028289;28;20061;-65
2022/07/30 06:24:15;;;;;;;13.88;6.28;;;;;;;;;;5027651;28;20080;-65
2022/07/30 06:26:40;;;;;;;9.43;5.85;;;18.00;99.90;;;;;;5029623;28;20099;-65
2022/07/30 06:29:06;;;;;;;11.55;6.43;;;18.30;99.90;;;;;;5027949;28;20128;-66
2022/07/30 06:31:32;;;;;;;11.93;6.95;;;18.60;99.90;;;;;;5027910;28;20053;-65
2022/07/30 06:33:57;;;;;;;10.80;6.00;;;18.50;99.90;;;;;;5025875;28;20801;-65
2022/07/30 06:36:23;;;;;;;11.85;6.40;;;18.30;99.90;;;;;;4999015;28;20386;-65
2022/07/30 06:38:48;;;;;;;12.25;6.47;;;18.80;99.90;;;;;;5027382;28;20050;-65
2022/07/30 06:41:14;;;;;;;15.18;6.63;;;18.70;99.90;;;;;;5047552;28;20084;-65
2022/07/30 06:43:40;;;;;;;12.35;6.45;;;18.80;99.90;;;;;;5031410;28;20041;-65
2022/07/30 06:46:08;;;;;;;11.25;5.85;;;19.10;99.90;;;;;;5029174;28;20518;-65
2022/07/30 06:48:35;;;;;;;12.55;6.13;;;;;;;;;;5027646;28;20091;-65
2022/07/30 06:51:01;;;;;;;11.82;6.00;;;19.10;99.90;;;;;;5027088;28;20120;-65
2022/07/30 06:53:27;;;;;;;16.27;6.53;;;19.10;99.90;;;;;;5046116;28;20441;-65
2022/07/30 06:55:53;;;;;;;9.80;5.72;;;19.10;99.90;;;;;;5049346;28;20109;-65
2022/07/30 06:58:18;;;;;;;11.68;6.72;;;19.10;99.90;;;;;;5051552;28;20440;-65
2022/07/30 07:00:44;;;;;;;10.65;6.57;;;;;;;;;;5037252;28;20545;-65
2022/07/30 07:03:11;;;;;;;10.82;6.53;;;;;;;;;;5045259;28;20049;-65
2022/07/30 07:05:37;;;;;;;10.57;6.03;;;;;;;;;;5037432;28;20038;-65
2022/07/30 07:08:03;;;;;;;10.25;5.88;;;;;;;;;;5031916;28;20156;-65
2022/07/30 07:10:29;;;;;;;10.45;4.97;;;;;;;;;;5032729;28;20099;-65
2022/07/30 07:12:55;;;;;;;13.07;7.20;;;;;;;;;;5039939;28;20053;-65
2022/07/30 07:15:47;;;;;;;10.35;5.50;;;;;;;;;;5026617;28;20498;-65
2022/07/30 07:18:24;;;;;;;10.18;5.70;;;;;;;;;;4980987;28;20054;-65
2022/07/30 07:20:50;;;;;;;13.73;6.45;;;;;;;;;;5037369;28;20059;-65
2022/07/30 07:23:16;;;;;;;10.57;5.78;;;;;;;;;;5059517;28;20053;-65
2022/07/30 07:25:42;;;;;;;8.98;5.47;;;;;;;;;;5048870;28;20076;-65
2022/07/30 07:28:08;;;;;;;12.55;6.35;;;;;;;;;;5034591;28;20097;-65
2022/07/30 07:30:34;;;;;;;10.32;6.03;;;;;;;;;;5036314;28;20124;-64
2022/07/30 07:33:00;;;;;;;16.50;6.35;;;;;;;;;;5036179;28;20124;-65
2022/07/30 07:35:26;;;;;;;11.20;5.70;;;;;;;;;;5054148;28;20064;-65
2022/07/30 07:37:52;;;;;;;6.85;4.80;;;;;;;;;;5054734;28;20041;-65
2022/07/30 07:40:18;;;;;;;13.82;5.30;;;;;;;;;;5036266;28;20043;-65
2022/07/30 07:42:44;;;;;;;11.15;5.35;;;;;;;;;;5036389;28;20029;-65
2022/07/30 07:45:10;;;;;;;10.23;5.20;;;;;;;;;;5054011;28;20480;-64
2022/07/30 07:47:44;;;;;;;8.88;5.20;;;;;;;;;;5035069;28;20131;-65
2022/07/30 07:50:10;;;;;;;10.68;5.65;;;;;;;;;;5037253;28;20048;-65
2022/07/30 07:52:36;;;;;;;9.70;5.50;;;;;;;;;;5054445;28;20037;-65
2022/07/30 07:55:02;;;;;;;11.00;5.43;;;;;;;;;;5053603;28;20037;-65
2022/07/30 07:57:28;;;;;;;11.13;5.30;;;;;;;;;;5036351;28;20040;-65
2022/07/30 07:59:54;;;;;;;11.57;4.30;;;;;;;;;;5047213;28;20041;-65
2022/07/30 08:02:20;;;;;;;8.75;4.00;;;;;;;;;;5039635;28;20111;-65
2022/07/30 08:04:46;;;;;;;11.40;4.85;;;;;;;;;;5035608;28;20041;-65
2022/07/30 08:07:12;;;;;;;9.23;4.65;;;;;;;;;;5054393;28;20268;-65
2022/07/30 08:09:38;;;;;;;10.07;4.45;;;;;;;;;;5050044;28;20385;-65
2022/07/30 08:12:05;;;;;;;8.30;4.57;;;;;;;;;;5028118;28;20037;-65
2022/07/30 08:14:31;;;;;;;7.53;4.57;;;;;;;;;;5023495;28;20068;-65
2022/07/30 08:16:56;;;;;;;10.75;5.18;;;;;;;;;;5063506;28;20079;-65
2022/07/30 08:19:22;;;;;;;10.63;5.57;;;;;;;;;;5047068;28;20132;-65
2022/07/30 08:21:49;;;;;;;9.55;5.32;;;;;;;;;;5034269;28;20061;-65
2022/07/30 08:24:15;;;;;;;11.15;4.72;;;;;;;;;;5035427;28;20053;-65
2022/07/30 08:26:41;;;;;;;10.88;4.80;;;;;;;;;;5051939;28;20080;-65
2022/07/30 08:29:07;;;;;;;7.85;5.00;;;;;;;;;;5035024;28;20043;-65
2022/07/30 08:31:33;;;;;;;8.63;4.68;;;;;;;;;;5053341;28;20040;-65
2022/07/30 08:33:59;;;;;;;13.00;6.93;;;;;;;;;;5053328;28;20051;-65
2022/07/30 08:36:24;;;;;;;8.23;4.40;;;;;;;;;;5053000;28;20048;-65
2022/07/30 08:38:51;;;;;;;9.10;4.07;;;;;;;;;;5053405;28;20037;-65
2022/07/30 08:41:18;;;;;;;9.95;3.72;;;;;;;;;;5036081;28;20113;-65
2022/07/30 08:43:46;;;;;;;7.10;3.28;;;;;;;;;;5052384;28;20417;-65
2022/07/30 08:46:14;;;;;;;8.10;3.75;;;;;;;;;;5053455;28;20048;-65
2022/07/30 08:48:41;;;;;;;9.23;3.83;;;;;;;;;;5033849;28;20041;-65
2022/07/30 08:51:08;;;;;;;6.68;3.55;;;;;;;;;;5052468;28;20047;-64
2022/07/30 08:53:34;;;;;;;11.77;4.78;;;;;;;;;;5018759;28;20041;-64
2022/07/30 08:56:01;;;;;;;10.38;4.50;;;;;;;;;;5052482;28;20045;-64
2022/07/30 08:58:32;;;;;;;8.90;4.65;;;;;;;;;;5032421;28;20130;-64
2022/07/30 09:00:58;;;;;;;8.60;4.22;;;;;;;;;;5016542;28;20060;-65
2022/07/30 09:03:24;;;;;;;7.63;4.38;;;;;;;;;;5033194;28;20172;-64
2022/07/30 09:05:50;;;;;;;8.63;4.65;;;;;;;;;;5043188;28;20135;-64
2022/07/30 09:08:16;;;;;;;8.25;3.97;;;;;;;;;;5013398;28;20120;-64
2022/07/30 09:10:43;;;;;;;9.27;3.85;;;;;;;;;;5042977;28;20049;-64
2022/07/30 09:13:28;;;;;;;10.93;4.68;;;;;;;;;;5030312;28;20385;-63
2022/07/30 09:15:55;;;;;;;7.95;4.10;;;;;;;;;;5029606;28;20429;-66
2022/07/30 09:18:32;;;;;;;8.30;4.22;;;;;;;;;;5044183;28;20048;-66
2022/07/30 09:20:59;;;;;;;9.18;4.43;;;;;;;;;;5023423;28;20069;-67
2022/07/30 09:23:25;;;;;;;7.35;3.65;;;;;;;;;;5039612;28;20053;-67
2022/07/30 09:25:51;;;;;;;7.25;4.50;;;;;;;;;;5030928;28;20052;-67
2022/07/30 09:28:27;;;;;;;9.57;4.20;;;;;;;;;;5049982;28;20409;-67
2022/07/30 09:30:54;;;;;;;7.85;3.92;;;;;;;;;;5049535;28;20119;-67
2022/07/30 09:33:32;;;;;;;9.05;4.40;;;;;;;;;;5062046;28;20037;-67
2022/07/30 09:35:59;;;;;;;8.98;3.47;;;;;;;;;;5015355;28;20040;-67
2022/07/30 09:38:25;;;;;;;6.55;4.18;;;;;;;;;;5031162;28;20087;-67
2022/07/30 09:40:51;;;;;;;11.15;4.43;;;;;;;;;;5046763;28;20094;-67
2022/07/30 09:43:17;;;;;;;9.02;4.55;;;;;;;;;;5049658;28;20140;-66
2022/07/30 09:45:50;;;;;;;9.73;4.32;;;;;;;;;;5030421;28;20434;-66
2022/07/30 09:48:21;;;;;;;9.02;4.47;;;;;;;;;;5030889;28;20045;-66
2022/07/30 09:50:48;;;;;;;11.60;4.15;;;;;;;;;;5019153;28;20036;-66
2022/07/30 09:53:14;;;;;;;10.40;4.43;;;;;;;;;;5049655;28;20337;-66
2022/07/30 09:55:40;;;;;;;8.45;3.88;;;;;;;;;;5037227;28;20498;-65
2022/07/30 09:58:06;;;;;;;9.65;4.15;;;;;;;;;;5049006;28;20041;-64
2022/07/30 10:00:33;;;;;;;7.53;3.90;;;;;;;;;;5030164;28;20068;-64
2022/07/30 10:03:00;;;;;;;8.07;3.88;;;;;;;;;;5031278;28;20033;-64
2022/07/30 10:05:26;;;;;;;8.38;3.47;;;;;;;;;;5049362;28;20048;-64
2022/07/30 10:07:52;;;;;;;5.93;3.67;;;;;;;;;;5030340;28;20056;-66
2022/07/30 10:10:19;;;;;;;8.77;3.90;;;;;;;;;;5031322;28;20083;-64
2022/07/30 10:12:46;;;;;;;9.30;4.35;;;;;;;;;;5030391;28;20068;-64
2022/07/30 10:15:13;;;;;;;9.10;4.22;;;;;;;;;;5031670;28;20112;-64
2022/07/30 10:17:40;;;;;;;6.22;3.40;;;;;;;;;;5007446;28;20048;-64
2022/07/30 10:20:10;;;;;;;7.60;3.70;;;;;;;;;;5021260;28;20417;-64
2022/07/30 10:22:37;;;;;;;6.65;3.45;;;;;;;;;;5027155;28;20517;-64
2022/07/30 10:25:03;;;;;;;6.78;4.13;;;;;;;;;;5014042;28;20041;-64
2022/07/30 10:27:30;;;;;;;10.15;4.47;;;;;;;;;;5031342;28;20482;-65
2022/07/30 10:29:58;;;;;;;8.82;4.20;;;;;;;;;;5030382;28;20433;-65
2022/07/30 10:32:25;;;;;;;9.60;4.82;;;;;;;;;;5024421;28;20426;-66
2022/07/30 10:34:52;;;;;;;8.98;3.53;;;;;;;;;;5016829;28;20091;-65
2022/07/30 10:37:19;;;;;;;8.23;4.25;;;;;;;;;;5023730;28;20037;-66
2022/07/30 10:39:57;;;;;;;8.93;3.83;;;;;;;;;;5052189;28;20497;-66
2022/07/30 10:42:42;;;;;;;11.00;4.15;;;;;;;;;;5014768;28;20383;-66
2022/07/30 10:45:08;;;;;;;;;;;;;;;;;;5015597;28;20045;-65
2022/07/30 10:47:34;;;;;;;11.02;4.55;;;;;;;;;;5014824;28;20332;-65
2022/07/30 10:50:08;;;;;;;7.72;3.58;;;;;;;;;;5041868;28;20486;-66
2022/07/30 10:52:50;;;;;;;7.83;3.90;;;;;;;;;;5035354;28;20394;-64
2022/07/30 10:55:34;;;;;;;6.82;3.97;;;;;;;;;;5051504;28;20341;-65
2022/07/30 10:58:08;;;;;;;7.15;4.00;;;;;;;;;;5051780;28;20037;-66
2022/07/30 11:00:52;;;;;;;7.20;3.33;;;;;;;;;;5033644;28;20045;-68
2022/07/30 11:03:25;;;;;;;8.90;3.53;;;;;;;;;;5052421;28;20088;-65
2022/07/30 11:06:11;;;;;;;7.70;3.28;;;;;;;;;;5033539;28;20045;-65
2022/07/30 11:08:38;;;;;;;7.97;3.63;;;;;;;;;;5014487;28;20107;-63
2022/07/30 11:11:20;;;;;;;6.35;3.28;;;;;;;;;;5007808;28;20540;-63
2022/07/30 11:13:56;;;;;;;7.47;3.30;;;;;;;;;;5028913;28;20128;-63
2022/07/30 11:16:31;;;;;;;10.82;3.83;;;;;;;;;;5052070;28;20037;-63
2022/07/30 11:19:12;;;;;;;6.57;3.05;;;;;;;;;;5051337;28;20045;-64
2022/07/30 11:21:38;;;;;;;5.00;3.15;;;;;;;;;;5050123;28;20053;-64
2022/07/30 11:24:27;;;;;;;5.82;2.72;;;;;;;;;;5033354;28;20102;-66
2022/07/30 11:26:53;;;;;;;9.27;3.42;;;;;;;;;;5062434;28;20413;-68
2022/07/30 11:29:41;;;;;;;5.32;3.00;;;;;;;;;;5034399;28;20041;-67
2022/07/30 11:32:28;;;;;;;9.07;3.22;;;;;;;;;;5052387;28;20460;-67
2022/07/30 11:35:13;;;;;;;5.57;2.90;;;;;;;;;;5034145;28;20099;-63
2022/07/30 11:37:55;;;;;;;12.65;3.72;;;;;;;;;;5033975;28;20049;-66
2022/07/30 11:40:22;;;;;;;8.10;2.90;;;;;;;;;;5051842;28;20371;-64
2022/07/30 11:42:48;;;;;;;7.88;3.20;;;;;;;;;;5061024;28;20480;-65
2022/07/30 11:45:15;;;;;;;7.00;2.97;;;;;;;;;;5056854;28;20081;-66
2022/07/30 11:47:45;;;;;;;6.60;3.22;;;;;;;;;;5070746;28;20032;-65
2022/07/30 11:50:21;;;;;;;10.15;3.05;;;;;;;;;;5031343;28;20037;-64
2022/07/30 11:52:50;;;;;;;6.88;3.17;;;;;;;;;;5052028;28;20398;-66
2022/07/30 11:55:27;;;;;;;8.80;3.67;;;;;;;;;;5016977;28;20045;-64
2022/07/30 11:57:54;;;;;;;7.90;3.45;;;;;;;;;;5033760;28;20053;-64
2022/07/30 12:00:20;;;;;;;6.07;3.08;;;;;;;;;;5051474;28;20040;-64
2022/07/30 12:02:48;;;;;;;10.10;4.05;;;;;;;;;;5017820;28;20045;-64
2022/07/30 12:05:14;;;;;;;8.45;2.95;;;;;;;;;;5052241;28;20041;-64
2022/07/30 12:07:41;;;;;;;6.18;3.15;;;;;;;;;;5049066;28;20045;-65
2022/07/30 12:10:19;;;;;;;6.72;2.70;;;;;;;;;;5028165;28;20514;-64
2022/07/30 12:12:45;;;;;;;5.75;3.10;;;;;;;;;;5045227;28;20060;-64
2022/07/30 12:15:27;;;;;;;12.43;2.85;;;;;;;;;;5051276;28;20149;-64
2022/07/30 12:17:53;;;;;;;8.10;3.03;;;;;;;;;;5031622;28;20081;-64
2022/07/30 12:20:19;;;;;;;5.63;2.65;;;;;;;;;;5048734;28;20092;-64
2022/07/30 12:22:46;;;;;;;6.68;2.70;;;;;;;;;;5033636;28;20102;-64
2022/07/30 12:25:12;;;;;;;8.43;2.42;;;;;;;;;;5062310;28;20040;-64
2022/07/30 12:27:39;;;;;;;7.55;2.70;;;;;;;;;;5061263;28;20044;-64
2022/07/30 12:30:05;;;;;;;6.95;3.33;;;;;;;;;;5052757;28;20044;-64
2022/07/30 12:32:31;;;;;;;5.03;2.60;;;;;;;;;;5071443;28;20488;-64
2022/07/30 12:34:57;;;;;;;10.98;2.75;;;;;;;;;;5065667;28;20072;-64
2022/07/30 12:37:26;;;;;;;5.07;2.42;;;;;;;;;;5050781;28;20686;-64
2022/07/30 12:40:09;;;;;;;6.63;2.78;;;;;;;;;;5068292;28;20044;-64
2022/07/30 12:42:36;;;;;;;6.55;2.40;;;;;;;;;;5032487;28;20052;-67
2022/07/30 12:45:02;;;;;;;5.47;2.17;;;;;;;;;;5039096;28;20052;-67
2022/07/30 12:47:29;;;;;;;6.00;2.85;;;;;;;;;;5052460;28;20444;-64
2022/07/30 12:49:56;;;;;;;5.85;2.20;;;;;;;;;;5037773;28;20076;-65
2022/07/30 12:52:24;;;;;;;5.40;2.30;;;;;;;;;;5050823;28;20106;-65
2022/07/30 12:55:07;;;;;;;5.75;2.53;;;;;;;;;;5045418;28;20493;-64
2022/07/30 12:57:52;;;;;;;4.80;1.63;;;;;;;;;;5050926;28;20178;-67
2022/07/30 13:00:18;;;;;;;;;;;;;;;;;;5071115;28;20049;-67
2022/07/30 13:02:44;;;;;;;6.55;1.90;;;;;;;;;;5062132;28;19928;-68
2022/07/30 13:05:10;;;;;;;5.80;2.33;;;;;;;;;;5032120;28;20549;-67
2022/07/30 13:07:51;;;;;;;3.88;1.73;;;;;;;;;;5032093;28;20513;-64
2022/07/30 13:10:17;;;;;;;5.35;2.38;;;;;;;;;;5015714;28;20541;-65
2022/07/30 13:12:44;;;;;;;5.60;2.00;;;;;;;;;;5037153;28;20041;-66
2022/07/30 13:15:17;;;;;;;3.72;1.80;;;;;;;;;;5042671;28;20076;-65
2022/07/30 13:17:43;;;;;;;4.97;1.90;;;;;;;;;;5015329;28;20084;-65
2022/07/30 13:20:09;;;;;;;4.53;1.50;;;;;;;;;;5050366;28;20091;-65
2022/07/30 13:22:35;;;;;;;5.05;2.00;;;;;;;;;;5032820;28;20044;-67
2022/07/30 13:25:02;;;;;;;7.43;1.92;;;;;;;;;;5007740;28;20052;-69
2022/07/30 13:27:28;;;;;;;4.45;1.88;;;;;;;;;;5005899;28;20066;-67
2022/07/30 13:29:54;;;;;;;3.40;1.50;;;;;;;;;;5035418;28;20048;-66
2022/07/30 13:32:20;;;;;;;8.48;1.95;;;;;;;;;;5069372;28;20040;-66
2022/07/30 13:34:46;;;;;;;6.72;1.77;;;;;;;;;;5068722;28;20056;-66
2022/07/30 13:37:12;;;;;;;4.03;1.58;;;;;;;;;;5038796;28;20471;-66
2022/07/30 13:39:38;;;;;;;5.60;2.28;;;;;;;;;;5045546;28;20604;-66
2022/07/30 13:42:04;;;;;;;4.18;1.50;;;;;;;;;;5049698;28;20140;-66
2022/07/30 13:44:30;;;;;;;3.35;1.33;;;;;;;;;;5031538;28;20124;-66
2022/07/30 13:46:56;;;;;;;5.47;1.73;;;;;;;;;;5030408;28;20131;-66
2022/07/30 13:49:22;;;;;;;5.10;1.85;;;;;;;;;;5031594;28;20561;-65
2022/07/30 13:51:48;;;;;;;4.40;1.65;;;;;;;;;;5015116;28;20171;-65
2022/07/30 13:54:14;;;;;;;3.92;1.88;;;;;;;;;;5028919;28;20052;-66
2022/07/30 13:56:40;;;;;;;4.80;2.40;;;;;;;;;;5031838;28;20053;-66
2022/07/30 13:59:06;;;;;;;4.07;1.45;;;;;;;;;;5030866;28;20513;-68
2022/07/30 14:01:33;;;;;;;3.70;1.50;;;;;;;;;;5030553;28;20095;-68
2022/07/30 14:04:00;;;;;;;4.28;1.67;;;;;;;;;;5049227;28;20056;-68
2022/07/30 14:06:26;;;;;;;3.42;1.25;;;;;;;;;;5030771;28;20114;-67
2022/07/30 14:08:52;;;;;;;3.03;1.20;;;;;;;;;;5014767;28;20037;-67
2022/07/30 14:11:18;;;;;;;5.18;1.52;;;;;;;;;;5048414;28;20048;-66
2022/07/30 14:13:44;;;;;;;4.15;1.50;;;;;;;;;;5032350;28;20037;-64
2022/07/30 14:16:10;;;;;;;2.55;1.00;;;;;;;;;;5031562;28;20048;-64
2022/07/30 14:18:37;;;;;;;2.53;1.10;;;;;;;;;;5030765;28;20075;-67
2022/07/30 14:21:03;;;;;;;4.05;1.55;;;;;;;;;;5013635;28;20632;-66
2022/07/30 14:23:29;;;;;;;3.42;1.00;;;;;;;;;;5030419;28;20124;-66
2022/07/30 14:25:56;;;;;;;3.17;1.30;;;;;;;;;;5057325;28;20595;-65